createdAt,value
2022-12-26T00:03:13.584Z,18.77
2022-12-26T00:08:10.067Z,20.88
2022-12-26T00:13:39.501Z,19.98
2022-12-26T00:18:22.914Z,19.50
2022-12-26T00:23:19.249Z,18.95
2022-12-26T00:28:15.638Z,18.95
2022-12-26T00:33:12.237Z,17.08
2022-12-26T00:38:08.624Z,17.30
2022-12-26T00:43:04.971Z,18.90
2022-12-26T00:48:01.372Z,17.88
2022-12-26T00:52:57.745Z,18.08
2022-12-26T00:57:54.079Z,18.45
2022-12-26T01:02:51.223Z,16.38
2022-12-26T01:08:19.721Z,15.43
2022-12-26T01:13:04.252Z,16.00
2022-12-26T01:18:01.257Z,15.80
2022-12-26T01:22:57.702Z,17.73
2022-12-26T01:27:54.080Z,17.80
2022-12-26T01:32:50.454Z,17.23
2022-12-26T01:37:46.780Z,17.55
2022-12-26T01:42:44.226Z,17.27
2022-12-26T01:47:49.285Z,18.27
2022-12-26T01:52:48.722Z,18.00
2022-12-26T01:57:50.201Z,18.00
2022-12-26T02:03:05.918Z,19.67
2022-12-26T02:08:09.852Z,17.63
2022-12-26T02:13:06.685Z,19.63
2022-12-26T02:18:03.141Z,18.60
2022-12-26T02:23:30.943Z,18.20
2022-12-26T02:28:42.771Z,16.88
2022-12-26T02:34:04.421Z,16.52
2022-12-26T02:39:44.297Z,17.10
2022-12-26T02:45:11.565Z,16.13
2022-12-26T02:50:53.854Z,17.20
2022-12-26T02:56:16.103Z,16.30
2022-12-26T03:01:48.767Z,17.67
2022-12-26T03:07:13.223Z,16.65
2022-12-26T03:12:43.218Z,17.00
2022-12-26T03:17:46.803Z,16.98
2022-12-26T03:22:54.633Z,17.88
2022-12-26T03:27:51.136Z,17.67
2022-12-26T03:32:47.543Z,17.13
2022-12-26T03:37:52.760Z,17.50
2022-12-26T03:43:28.705Z,18.02
2022-12-26T03:48:54.091Z,18.48
2022-12-26T03:54:17.331Z,19.15
2022-12-26T03:59:39.558Z,19.00
2022-12-26T04:04:58.382Z,16.83
2022-12-26T04:10:22.086Z,17.48
2022-12-26T04:16:12.888Z,19.17
2022-12-26T04:21:37.190Z,19.23
2022-12-26T04:27:03.900Z,18.80
2022-12-26T04:32:32.243Z,18.50
2022-12-26T04:43:46.562Z,17.48
2022-12-26T04:48:41.720Z,18.53
2022-12-26T04:53:38.212Z,17.98
2022-12-26T04:58:34.621Z,18.48
2022-12-26T05:03:49.810Z,18.50
2022-12-26T05:09:06.144Z,17.02
2022-12-26T05:14:02.585Z,17.08
2022-12-26T05:19:17.780Z,18.17
2022-12-26T05:24:32.880Z,16.52
2022-12-26T05:29:29.495Z,17.85
2022-12-26T05:34:25.867Z,17.50
2022-12-26T05:39:22.981Z,17.75
2022-12-26T05:44:19.370Z,15.20
2022-12-26T05:49:15.769Z,16.63
2022-12-26T05:54:12.184Z,15.73
2022-12-26T05:59:09.784Z,14.18
2022-12-26T06:04:06.113Z,13.20
2022-12-26T06:09:02.495Z,13.70
2022-12-26T06:13:59.975Z,12.70
2022-12-26T06:18:56.589Z,13.05
2022-12-26T06:23:52.949Z,12.52
2022-12-26T06:28:49.559Z,12.27
2022-12-26T06:33:46.475Z,11.55
2022-12-26T06:38:43.480Z,12.18
2022-12-26T06:43:39.899Z,12.82
2022-12-26T06:48:39.608Z,12.98
2022-12-26T06:53:36.359Z,13.68
2022-12-26T06:58:32.796Z,13.73
2022-12-26T07:03:29.173Z,12.05
2022-12-26T07:08:25.511Z,12.50
2022-12-26T07:13:22.002Z,13.35
2022-12-26T07:18:18.500Z,12.60
2022-12-26T07:23:15.301Z,13.25
2022-12-26T07:28:11.643Z,11.70
2022-12-26T07:33:07.967Z,11.75
2022-12-26T07:38:04.365Z,11.93
2022-12-26T07:43:00.889Z,12.18
2022-12-26T07:47:58.657Z,11.18
2022-12-26T07:52:55.403Z,11.80
2022-12-26T07:57:52.436Z,12.00
2022-12-26T08:02:50.765Z,11.60
2022-12-26T08:12:44.842Z,12.45
2022-12-26T08:17:41.226Z,13.35
2022-12-26T08:22:37.557Z,13.65
2022-12-26T08:27:33.942Z,13.90
2022-12-26T08:32:30.651Z,13.65
2022-12-26T08:37:27.040Z,13.68
2022-12-26T08:42:23.397Z,13.38
2022-12-26T08:47:19.725Z,13.40
2022-12-26T08:52:16.069Z,12.95
2022-12-26T08:57:12.421Z,12.43
2022-12-26T09:02:11.558Z,12.10
2022-12-26T09:07:09.112Z,10.00
2022-12-26T09:12:05.647Z,10.02
2022-12-26T09:17:02.086Z,9.00
2022-12-26T09:22:18.163Z,8.68
2022-12-26T09:27:14.576Z,7.85
2022-12-26T09:32:10.930Z,7.40
2022-12-26T09:37:07.460Z,6.63
2022-12-26T09:42:18.182Z,7.03
2022-12-26T09:47:40.054Z,6.63
2022-12-26T09:52:45.243Z,5.82
2022-12-26T09:57:50.305Z,5.50
2022-12-26T10:02:52.923Z,5.60
2022-12-26T10:08:12.061Z,5.70
2022-12-26T10:13:32.347Z,4.60
2022-12-26T10:18:50.014Z,3.88
2022-12-26T10:23:54.775Z,3.13
2022-12-26T10:28:54.411Z,2.50
2022-12-26T10:34:00.662Z,2.30
2022-12-26T10:38:59.623Z,2.35
2022-12-26T10:43:56.300Z,2.20
2022-12-26T10:48:53.809Z,2.15
2022-12-26T10:53:52.539Z,2.33
2022-12-26T10:59:01.163Z,2.67
2022-12-26T11:04:00.250Z,2.75
2022-12-26T11:08:57.100Z,2.75
2022-12-26T11:14:01.704Z,2.00
2022-12-26T11:18:59.084Z,2.47
2022-12-26T11:24:10.768Z,1.95
2022-12-26T11:29:15.026Z,1.70
2022-12-26T11:34:19.491Z,1.73
2022-12-26T11:39:24.824Z,1.60
2022-12-26T11:44:33.527Z,2.35
2022-12-26T11:49:34.898Z,2.20
2022-12-26T11:54:35.797Z,1.95
2022-12-26T11:59:32.189Z,1.30
2022-12-26T12:04:28.500Z,1.40
2022-12-26T12:09:40.293Z,1.52
2022-12-26T12:15:01.575Z,1.50
2022-12-26T12:20:07.032Z,1.73
2022-12-26T12:25:37.500Z,2.17
2022-12-26T12:30:47.185Z,2.50
2022-12-26T12:36:03.124Z,2.50
2022-12-26T12:41:06.560Z,2.30
2022-12-26T12:46:08.667Z,2.60
2022-12-26T12:51:27.106Z,2.80
2022-12-26T13:01:35.414Z,2.65
2022-12-26T13:06:43.515Z,2.30
2022-12-26T13:11:51.082Z,2.67
2022-12-26T13:16:55.573Z,2.60
2022-12-26T13:21:57.507Z,2.70
2022-12-26T13:27:00.418Z,2.22
2022-12-26T13:31:59.626Z,1.42
2022-12-26T13:36:58.309Z,1.35
2022-12-26T13:47:38.795Z,1.85
2022-12-26T13:52:40.097Z,2.00
2022-12-26T13:57:42.646Z,2.10
2022-12-26T14:03:17.347Z,1.00
2022-12-26T14:08:29.554Z,1.67
2022-12-26T14:13:36.694Z,1.20
2022-12-26T14:18:32.971Z,1.30
2022-12-26T14:23:45.980Z,1.15
2022-12-26T14:28:54.572Z,0.90
2022-12-26T14:34:05.437Z,1.10
2022-12-26T14:39:32.635Z,2.65
2022-12-26T14:44:28.922Z,1.35
2022-12-26T14:49:38.532Z,1.02
2022-12-26T14:54:37.622Z,1.38
2022-12-26T14:59:34.724Z,1.50
2022-12-26T15:04:52.820Z,1.30
2022-12-26T15:09:54.924Z,0.90
2022-12-26T15:15:19.211Z,0.88
2022-12-26T15:20:37.836Z,1.05
2022-12-26T15:26:03.356Z,1.20
2022-12-26T15:31:18.748Z,1.00
2022-12-26T15:36:49.575Z,0.77
2022-12-26T15:41:47.351Z,1.05
2022-12-26T15:46:53.315Z,1.30
2022-12-26T15:51:59.350Z,0.82
2022-12-26T15:57:04.608Z,1.27
2022-12-26T16:02:01.561Z,1.00
2022-12-26T16:07:04.354Z,1.00
2022-12-26T16:12:01.265Z,0.93
2022-12-26T16:17:20.347Z,1.10
2022-12-26T16:22:48.514Z,1.05
2022-12-26T16:27:47.662Z,1.15
2022-12-26T16:32:45.110Z,1.00
2022-12-26T16:37:42.849Z,1.13
2022-12-26T16:42:42.564Z,1.58
2022-12-26T16:47:39.637Z,1.13
2022-12-26T16:52:45.926Z,1.80
2022-12-26T16:57:43.436Z,1.38
2022-12-26T17:02:47.068Z,2.13
2022-12-26T17:07:46.413Z,2.50
2022-12-26T17:12:47.235Z,1.42
2022-12-26T17:17:46.050Z,1.92
2022-12-26T17:27:38.664Z,1.25
2022-12-26T17:32:45.149Z,2.20
2022-12-26T17:37:42.528Z,1.20
2022-12-26T17:42:51.764Z,2.65
2022-12-26T17:47:51.380Z,1.73
2022-12-26T17:52:47.963Z,1.58
2022-12-26T17:57:44.314Z,1.65
2022-12-26T18:02:40.733Z,1.45
2022-12-26T18:07:37.465Z,1.75
2022-12-26T18:12:33.987Z,2.13
2022-12-26T18:17:33.562Z,1.95
2022-12-26T18:22:30.102Z,2.03
2022-12-26T18:27:31.415Z,2.13
2022-12-26T18:32:33.450Z,1.65
2022-12-26T18:37:30.233Z,1.73
2022-12-26T18:42:27.287Z,1.63
2022-12-26T18:47:23.873Z,2.38
2022-12-26T18:52:20.254Z,2.28
2022-12-26T18:57:20.118Z,2.30
2022-12-26T19:02:19.162Z,2.03
2022-12-26T19:07:17.428Z,2.60
2022-12-26T19:12:14.742Z,1.73
2022-12-26T19:17:11.135Z,1.92
2022-12-26T19:22:07.871Z,3.20
2022-12-26T19:27:04.371Z,2.60
2022-12-26T19:32:00.821Z,2.30
2022-12-26T19:36:57.258Z,2.47
2022-12-26T19:41:53.581Z,2.67
2022-12-26T19:46:49.920Z,2.30
2022-12-26T19:52:06.243Z,3.13
2022-12-26T19:57:02.651Z,3.03
2022-12-26T20:01:59.326Z,2.40
2022-12-26T20:06:59.344Z,2.58
2022-12-26T20:11:56.454Z,3.38
2022-12-26T20:17:07.240Z,2.40
2022-12-26T20:22:05.195Z,2.88
2022-12-26T20:27:02.433Z,2.28
2022-12-26T20:31:58.786Z,3.22
2022-12-26T20:36:55.116Z,3.67
2022-12-26T20:41:51.490Z,3.45
2022-12-26T20:46:48.261Z,2.45
2022-12-26T20:51:45.292Z,2.25
2022-12-26T20:56:42.255Z,2.25
2022-12-26T21:01:39.805Z,2.33
2022-12-26T21:06:37.785Z,1.80
2022-12-26T21:11:38.013Z,1.88
2022-12-26T21:16:37.344Z,1.58
2022-12-26T21:21:36.217Z,2.15
2022-12-26T21:31:32.213Z,2.08
2022-12-26T21:36:29.761Z,1.95
2022-12-26T21:41:26.106Z,2.63
2022-12-26T21:46:22.567Z,2.00
2022-12-26T21:51:21.636Z,2.10
2022-12-26T21:56:18.378Z,2.70
2022-12-26T22:01:20.193Z,1.80
2022-12-26T22:06:16.659Z,1.60
2022-12-26T22:11:36.232Z,1.65
2022-12-26T22:16:33.595Z,1.98
2022-12-26T22:21:29.931Z,1.92
2022-12-26T22:26:28.700Z,1.23
2022-12-26T22:31:32.127Z,1.75
2022-12-26T22:36:29.865Z,1.40
2022-12-26T22:41:27.178Z,1.58
2022-12-26T22:46:24.143Z,1.45
2022-12-26T22:51:24.203Z,2.90
2022-12-26T22:56:20.709Z,2.17
2022-12-26T23:01:19.029Z,2.67
2022-12-26T23:06:30.980Z,3.15
2022-12-26T23:11:34.802Z,3.60
2022-12-26T23:16:41.418Z,3.55
2022-12-26T23:21:39.726Z,2.90
2022-12-26T23:26:36.164Z,3.28
2022-12-26T23:31:32.563Z,2.60
2022-12-26T23:36:28.965Z,3.60
2022-12-26T23:41:25.291Z,2.35
2022-12-26T23:46:21.697Z,2.72
2022-12-26T23:51:18.701Z,2.65
2022-12-26T23:56:15.100Z,2.25
